Terminal Aerodrome Forecast
Issued by NWS

Home | Current Version | Previous Version | Text Only | Print | Product List | Glossary On
Versions: 1 2 3 4 5 6 7 8 9 10 11 12 13 14 15
000
FTAK31 PAJN 181700 RRA
TAFAGY
TAF
PAGY 181741Z 1818/1918 21013G23KT P6SM -SHRA SCT025 BKN045 OVC060
     FM182100 21022G32KT P6SM VCSH SCT035 BKN070
     FM190400 21012KT P6SM SCT035 SCT070
     FM190600 VRB04KT P6SM FEW070 SCT100
     FM191300 04008KT P6SM FEW100
      AMD LTD TO CLD VIS AND WIND=

USA.gov is the U.S. government's official web portal to all federal, state and local government web resources and services.